Time,TemperatureF,DewpointF,PressureIn,WindDirection,WindDirectionDegrees,WindSpeedMPH,WindSpeedGustMPH,Humidity,HourlyPrecipIn,Conditions,Clouds,dailyrainin,SoftwareType,DateUTC
2013-09-25 00:03:00,48.7,40.4,29.78,SSE,157,0.0,1.1,73,0.00,,,0.00,LWC V1.12 B30,2013-09-25 07:03:00,
2013-09-25 00:08:00,48.7,40.4,29.78,SSE,157,0.0,2.9,73,0.00,,,0.00,LWC V1.12 B30,2013-09-25 07:08:00,
2013-09-25 00:13:00,48.7,40.7,29.78,SSE,157,2.0,2.5,74,0.00,,,0.00,LWC V1.12 B30,2013-09-25 07:13:00,
2013-09-25 00:18:00,48.7,40.7,29.78,South,180,2.5,3.6,74,0.00,,,0.00,LWC V1.12 B30,2013-09-25 07:18:00,
2013-09-25 00:23:00,48.6,40.6,29.78,SSE,157,2.2,14.1,74,0.00,,,0.00,LWC V1.12 B30,2013-09-25 07:23:00,
2013-09-25 00:28:00,48.6,40.9,29.78,SSE,157,2.0,6.7,75,0.00,,,0.00,LWC V1.12 B30,2013-09-25 07:28:00,
2013-09-25 00:33:00,48.4,40.7,29.79,SSE,157,4.5,4.5,75,0.00,,,0.00,LWC V1.12 B30,2013-09-25 07:33:00,
2013-09-25 00:38:00,48.4,40.7,29.79,SSE,157,3.1,5.1,75,0.00,,,0.00,LWC V1.12 B30,2013-09-25 07:38:00,
2013-09-25 00:43:00,48.2,40.9,29.78,SE,135,4.9,10.7,76,0.00,,,0.00,LWC V1.12 B30,2013-09-25 07:43:00,
2013-09-25 00:48:00,48.0,40.7,29.78,SSE,157,5.1,8.1,76,0.00,,,0.00,LWC V1.12 B30,2013-09-25 07:48:00,
2013-09-25 00:53:00,48.0,41.1,29.78,South,180,3.6,8.3,77,0.00,,,0.00,LWC V1.12 B30,2013-09-25 07:53:00,
2013-09-25 00:58:00,47.8,40.9,29.78,SSE,157,3.4,6.0,77,0.00,,,0.00,LWC V1.12 B30,2013-09-25 07:58:00,
2013-09-25 01:03:00,47.8,40.9,29.78,SE,135,3.8,9.4,77,0.00,,,0.00,LWC V1.12 B30,2013-09-25 08:03:00,
2013-09-25 01:08:00,47.7,40.7,29.78,South,180,2.0,6.5,77,0.00,,,0.00,LWC V1.12 B30,2013-09-25 08:08:00,
2013-09-25 01:13:00,47.7,40.7,29.78,SSE,157,1.3,3.8,77,0.00,,,0.00,LWC V1.12 B30,2013-09-25 08:13:00,
2013-09-25 01:18:00,47.5,40.6,29.78,SSE,157,0.0,0.0,77,0.00,,,0.00,LWC V1.12 B30,2013-09-25 08:18:00,
2013-09-25 01:23:00,47.5,40.6,29.78,SW,225,0.0,1.6,77,0.00,,,0.00,LWC V1.12 B30,2013-09-25 08:23:00,
2013-09-25 01:28:00,47.5,40.6,29.77,SE,135,0.0,0.0,77,0.00,,,0.00,LWC V1.12 B30,2013-09-25 08:28:00,
2013-09-25 01:33:00,47.5,40.6,29.78,SE,135,0.0,0.0,77,0.00,,,0.00,LWC V1.12 B30,2013-09-25 08:33:00,
2013-09-25 01:38:00,47.5,40.6,29.78,SE,135,0.0,0.0,77,0.00,,,0.00,LWC V1.12 B30,2013-09-25 08:38:00,
2013-09-25 01:43:00,47.3,40.4,29.77,SE,135,0.0,0.0,77,0.00,,,0.00,LWC V1.12 B30,2013-09-25 08:43:00,
2013-09-25 01:48:00,47.1,40.3,29.77,SE,135,0.0,0.0,77,0.00,,,0.00,LWC V1.12 B30,2013-09-25 08:48:00,
2013-09-25 01:53:00,47.1,40.3,29.77,ESE,112,0.0,0.0,77,0.00,,,0.00,LWC V1.12 B30,2013-09-25 08:53:00,
2013-09-25 01:58:00,46.9,40.1,29.77,ESE,112,0.0,0.0,77,0.00,,,0.00,LWC V1.12 B30,2013-09-25 08:58:00,
2013-09-25 02:03:00,46.9,40.1,29.77,ESE,112,0.0,0.0,77,0.00,,,0.00,LWC V1.12 B30,2013-09-25 09:03:00,
2013-09-25 02:08:00,46.8,39.9,29.77,ESE,112,0.0,0.0,77,0.00,,,0.00,LWC V1.12 B30,2013-09-25 09:08:00,
2013-09-25 02:13:00,46.8,40.3,29.77,ESE,112,0.0,0.0,78,0.00,,,0.00,LWC V1.12 B30,2013-09-25 09:13:00,
2013-09-25 02:18:00,46.6,40.1,29.77,ESE,112,1.6,1.8,78,0.00,,,0.00,LWC V1.12 B30,2013-09-25 09:18:00,
2013-09-25 02:23:00,46.2,39.8,29.77,ESE,112,0.0,0.0,78,0.00,,,0.00,LWC V1.12 B30,2013-09-25 09:23:00,
2013-09-25 02:28:00,46.2,39.8,29.77,ESE,112,0.0,0.0,78,0.00,,,0.00,LWC V1.12 B30,2013-09-25 09:28:00,
2013-09-25 02:33:00,46.0,39.6,29.76,ESE,112,0.0,0.0,78,0.00,,,0.00,LWC V1.12 B30,2013-09-25 09:33:00,
2013-09-25 02:38:00,46.0,39.6,29.76,SE,135,0.0,2.0,78,0.00,,,0.00,LWC V1.12 B30,2013-09-25 09:38:00,
2013-09-25 02:43:00,45.7,39.2,29.77,SE,135,1.1,2.5,78,0.00,,,0.00,LWC V1.12 B30,2013-09-25 09:43:00,
2013-09-25 02:48:00,45.5,39.1,29.77,SE,135,0.0,1.1,78,0.00,,,0.00,LWC V1.12 B30,2013-09-25 09:48:00,
2013-09-25 02:53:00,45.5,39.4,29.77,SE,135,1.3,1.6,79,0.00,,,0.00,LWC V1.12 B30,2013-09-25 09:53:00,
2013-09-25 02:58:00,45.3,39.2,29.76,ESE,112,1.3,1.6,79,0.00,,,0.00,LWC V1.12 B30,2013-09-25 09:58:00,
2013-09-25 03:03:00,45.3,39.2,29.76,SE,135,1.8,2.7,79,0.00,,,0.00,LWC V1.12 B30,2013-09-25 10:03:00,
2013-09-25 03:08:00,45.1,39.0,29.77,SE,135,0.0,1.6,79,0.00,,,0.00,LWC V1.12 B30,2013-09-25 10:08:00,
2013-09-25 03:14:00,45.1,39.0,29.76,SE,135,0.0,0.0,79,0.00,,,0.00,LWC V1.12 B30,2013-09-25 10:14:00,
2013-09-25 03:19:00,45.1,39.0,29.76,SE,135,0.0,0.0,79,0.00,,,0.00,LWC V1.12 B30,2013-09-25 10:19:00,
2013-09-25 03:24:00,45.1,39.4,29.76,SE,135,0.0,1.6,80,0.00,,,0.00,LWC V1.12 B30,2013-09-25 10:24:00,
2013-09-25 03:29:00,45.1,39.4,29.76,SE,135,0.0,1.8,80,0.00,,,0.00,LWC V1.12 B30,2013-09-25 10:29:00,
2013-09-25 03:34:00,45.1,39.4,29.76,SE,135,1.1,2.0,80,0.00,,,0.00,LWC V1.12 B30,2013-09-25 10:34:00,
2013-09-25 03:39:00,45.1,39.4,29.76,SE,135,0.0,0.0,80,0.00,,,0.00,LWC V1.12 B30,2013-09-25 10:39:00,
2013-09-25 03:44:00,45.1,39.4,29.75,SE,135,0.0,0.0,80,0.00,,,0.00,LWC V1.12 B30,2013-09-25 10:44:00,
2013-09-25 03:49:00,45.1,39.4,29.76,SE,135,1.3,2.0,80,0.00,,,0.00,LWC V1.12 B30,2013-09-25 10:49:00,
2013-09-25 03:55:00,45.1,39.7,29.76,SE,135,0.0,0.0,81,0.00,,,0.00,LWC V1.12 B30,2013-09-25 10:55:00,
2013-09-25 04:00:00,45.3,39.7,29.75,SE,135,0.0,0.0,81,0.00,,,0.00,LWC V1.12 B30,2013-09-25 11:00:00,
2013-09-25 04:05:00,45.3,39.9,29.76,SE,135,0.0,0.0,81,0.00,,,0.00,LWC V1.12 B30,2013-09-25 11:05:00,
2013-09-25 04:10:00,45.5,40.0,29.76,ESE,112,0.0,0.0,81,0.00,,,0.00,LWC V1.12 B30,2013-09-25 11:10:00,
2013-09-25 04:15:00,45.7,40.5,29.75,East,90,0.0,0.0,82,0.00,,,0.00,LWC V1.12 B30,2013-09-25 11:15:00,
2013-09-25 04:20:00,45.9,40.7,29.75,East,90,0.0,0.0,82,0.00,,,0.00,LWC V1.12 B30,2013-09-25 11:20:00,
2013-09-25 04:25:00,46.0,40.6,29.75,East,90,0.0,0.0,81,0.00,,,0.00,LWC V1.12 B30,2013-09-25 11:25:00,
2013-09-25 04:30:00,46.0,40.6,29.75,East,90,0.0,0.0,81,0.00,,,0.00,LWC V1.12 B30,2013-09-25 11:30:00,
2013-09-25 04:35:00,46.2,40.8,29.75,East,90,0.0,0.0,81,0.00,,,0.00,LWC V1.12 B30,2013-09-25 11:35:00,
2013-09-25 04:40:00,46.2,40.8,29.75,East,90,0.0,0.0,81,0.00,,,0.00,LWC V1.12 B30,2013-09-25 11:40:00,
2013-09-25 04:45:00,46.2,40.8,29.74,East,90,0.0,0.0,81,0.00,,,0.00,LWC V1.12 B30,2013-09-25 11:45:00,
2013-09-25 04:50:00,46.6,41.4,29.74,East,90,0.0,0.0,82,0.00,,,0.00,LWC V1.12 B30,2013-09-25 11:50:00,
2013-09-25 04:55:00,46.6,41.4,29.75,NNW,337,0.0,0.0,82,0.00,,,0.00,LWC V1.12 B30,2013-09-25 11:55:00,
2013-09-25 05:01:00,46.6,41.4,29.75,NNW,337,0.0,0.0,82,0.00,,,0.00,LWC V1.12 B30,2013-09-25 12:01:00,
2013-09-25 05:06:00,46.6,41.4,29.75,NNW,337,0.0,0.0,82,0.00,,,0.00,LWC V1.12 B30,2013-09-25 12:06:00,
2013-09-25 05:11:00,46.4,41.3,29.75,NNW,337,0.0,0.0,82,0.00,,,0.00,LWC V1.12 B30,2013-09-25 12:11:00,
2013-09-25 05:16:00,46.6,41.4,29.76,NNW,337,0.0,0.0,82,0.00,,,0.00,LWC V1.12 B30,2013-09-25 12:16:00,
2013-09-25 05:21:00,46.6,41.4,29.76,NW,315,0.0,0.0,82,0.00,,,0.00,LWC V1.12 B30,2013-09-25 12:21:00,
2013-09-25 05:26:00,46.4,41.3,29.77,NW,315,0.0,0.0,82,0.00,,,0.00,LWC V1.12 B30,2013-09-25 12:26:00,
2013-09-25 05:27:00,46.4,41.3,29.77,NW,315,0.0,0.0,82,0.00,,,0.00,LWC V1.12 B30,2013-09-25 12:27:00,
2013-09-25 05:32:00,46.6,41.4,29.77,WNW,292,0.0,1.6,82,0.00,,,0.00,LWC V1.12 B30,2013-09-25 12:32:00,
2013-09-25 05:37:00,46.6,41.4,29.77,NNW,337,14.1,14.1,82,0.00,,,0.00,LWC V1.12 B30,2013-09-25 12:37:00,
2013-09-25 05:42:00,46.6,41.4,29.76,WNW,292,0.0,0.0,82,0.00,,,0.00,LWC V1.12 B30,2013-09-25 12:42:00,
2013-09-25 05:47:00,46.6,41.4,29.77,WNW,292,0.0,14.1,82,0.00,,,0.00,LWC V1.12 B30,2013-09-25 12:47:00,
2013-09-25 05:52:00,46.2,41.1,29.77,WNW,292,0.0,1.1,82,0.00,,,0.00,LWC V1.12 B30,2013-09-25 12:52:00,
2013-09-25 05:57:00,46.2,41.1,29.78,WNW,292,0.0,0.0,82,0.00,,,0.00,LWC V1.12 B30,2013-09-25 12:57:00,
2013-09-25 06:02:00,46.2,41.1,29.78,WNW,292,0.0,0.0,82,0.00,,,0.00,LWC V1.12 B30,2013-09-25 13:02:00,
2013-09-25 06:07:00,46.2,41.1,29.77,WNW,292,0.0,0.0,82,0.00,,,0.00,LWC V1.12 B30,2013-09-25 13:07:00,
2013-09-25 06:12:00,46.2,41.1,29.77,WNW,292,0.0,0.0,82,0.00,,,0.00,LWC V1.12 B30,2013-09-25 13:12:00,
2013-09-25 06:17:00,46.2,41.1,29.77,WNW,292,0.0,0.0,82,0.00,,,0.00,LWC V1.12 B30,2013-09-25 13:17:00,
2013-09-25 06:22:00,46.2,40.8,29.77,WNW,292,0.0,0.0,81,0.00,,,0.00,LWC V1.12 B30,2013-09-25 13:22:00,
2013-09-25 06:27:00,46.2,40.8,29.77,WNW,292,0.0,0.0,81,0.00,,,0.00,LWC V1.12 B30,2013-09-25 13:27:00,
2013-09-25 06:32:00,46.2,40.8,29.77,WNW,292,0.0,0.0,81,0.00,,,0.00,LWC V1.12 B30,2013-09-25 13:32:00,
2013-09-25 06:37:00,46.2,40.8,29.77,WNW,292,0.0,0.0,81,0.00,,,0.00,LWC V1.12 B30,2013-09-25 13:37:00,
2013-09-25 06:42:00,46.2,40.8,29.78,WNW,292,0.0,0.0,81,0.00,,,0.00,LWC V1.12 B30,2013-09-25 13:42:00,
2013-09-25 06:47:00,46.2,40.8,29.78,WNW,292,0.0,0.0,81,0.00,,,0.00,LWC V1.12 B30,2013-09-25 13:47:00,
2013-09-25 06:52:00,46.2,40.8,29.78,WNW,292,0.0,0.0,81,0.00,,,0.00,LWC V1.12 B30,2013-09-25 13:52:00,
2013-09-25 06:57:00,46.2,40.8,29.78,WNW,292,0.0,0.0,81,0.00,,,0.00,LWC V1.12 B30,2013-09-25 13:57:00,
2013-09-25 07:02:00,46.2,40.8,29.78,WNW,292,0.0,0.0,81,0.00,,,0.00,LWC V1.12 B30,2013-09-25 14:02:00,
2013-09-25 07:07:00,46.2,40.8,29.78,WNW,292,0.0,0.0,81,0.00,,,0.00,LWC V1.12 B30,2013-09-25 14:07:00,
2013-09-25 07:12:00,46.2,40.8,29.78,WNW,292,0.0,0.0,81,0.00,,,0.00,LWC V1.12 B30,2013-09-25 14:12:00,
2013-09-25 07:17:00,46.2,40.8,29.78,WNW,292,0.0,0.0,81,0.00,,,0.00,LWC V1.12 B30,2013-09-25 14:17:00,
2013-09-25 07:22:00,46.2,40.8,29.77,NNW,337,2.9,2.9,81,0.00,,,0.00,LWC V1.12 B30,2013-09-25 14:22:00,
2013-09-25 07:27:00,46.2,41.1,29.78,NW,315,1.3,1.3,82,0.00,,,0.00,LWC V1.12 B30,2013-09-25 14:27:00,
2013-09-25 07:32:00,46.2,41.1,29.78,West,270,1.3,1.8,82,0.00,,,0.00,LWC V1.12 B30,2013-09-25 14:32:00,
2013-09-25 07:37:00,46.2,41.1,29.78,West,270,1.6,1.6,82,0.00,,,0.00,LWC V1.12 B30,2013-09-25 14:37:00,
2013-09-25 07:42:00,46.2,41.1,29.78,WNW,292,0.0,0.0,82,0.00,,,0.00,LWC V1.12 B30,2013-09-25 14:42:00,
2013-09-25 07:47:00,46.2,41.1,29.78,NW,315,0.0,0.0,82,0.00,,,0.00,LWC V1.12 B30,2013-09-25 14:47:00,
2013-09-25 07:52:00,46.2,41.1,29.78,NW,315,0.0,0.0,82,0.00,,,0.00,LWC V1.12 B30,2013-09-25 14:52:00,
2013-09-25 07:57:00,46.2,41.1,29.78,North,0,0.0,1.3,82,0.00,,,0.00,LWC V1.12 B30,2013-09-25 14:57:00,
2013-09-25 08:02:00,46.4,41.3,29.78,NNW,337,1.3,2.5,82,0.00,,,0.00,LWC V1.12 B30,2013-09-25 15:02:00,
2013-09-25 08:07:00,46.2,41.4,29.78,NNW,337,1.8,2.2,83,0.00,,,0.00,LWC V1.12 B30,2013-09-25 15:07:00,
2013-09-25 08:12:00,46.4,41.6,29.78,North,0,0.0,1.6,83,0.00,,,0.00,LWC V1.12 B30,2013-09-25 15:12:00,
2013-09-25 08:17:00,46.2,41.4,29.78,NNW,337,0.0,2.5,83,0.00,,,0.00,LWC V1.12 B30,2013-09-25 15:17:00,
2013-09-25 08:22:00,46.2,41.4,29.78,NW,315,0.0,0.0,83,0.00,,,0.00,LWC V1.12 B30,2013-09-25 15:22:00,
2013-09-25 08:28:00,46.6,41.7,29.78,NW,315,0.0,0.0,83,0.00,,,0.00,LWC V1.12 B30,2013-09-25 15:28:00,
2013-09-25 08:33:00,46.6,41.7,29.79,WNW,292,0.0,0.0,83,0.00,,,0.00,LWC V1.12 B30,2013-09-25 15:33:00,
2013-09-25 08:38:00,46.6,41.7,29.78,NNW,337,1.3,1.3,83,0.00,,,0.00,LWC V1.12 B30,2013-09-25 15:38:00,
2013-09-25 08:43:00,46.8,41.9,29.79,West,270,0.0,0.0,83,0.00,,,0.00,LWC V1.12 B30,2013-09-25 15:43:00,
2013-09-25 08:48:00,46.8,41.6,29.78,West,270,2.9,2.9,82,0.00,,,0.00,LWC V1.12 B30,2013-09-25 15:48:00,
2013-09-25 08:53:00,46.9,42.0,29.79,WNW,292,0.0,0.0,83,0.00,,,0.00,LWC V1.12 B30,2013-09-25 15:53:00,
2013-09-25 08:58:00,47.3,42.1,29.79,West,270,1.1,2.2,82,0.00,,,0.00,LWC V1.12 B30,2013-09-25 15:58:00,
2013-09-25 09:03:00,47.5,42.2,29.79,West,270,0.0,0.0,82,0.00,,,0.00,LWC V1.12 B30,2013-09-25 16:03:00,
2013-09-25 09:08:00,48.0,42.7,29.79,North,0,0.0,0.0,82,0.00,,,0.00,LWC V1.12 B30,2013-09-25 16:08:00,
2013-09-25 09:13:00,48.0,42.4,29.79,WNW,292,0.0,0.0,81,0.00,,,0.00,LWC V1.12 B30,2013-09-25 16:13:00,
2013-09-25 09:18:00,48.4,42.7,29.79,North,0,2.7,2.7,81,0.00,,,0.00,LWC V1.12 B30,2013-09-25 16:18:00,
2013-09-25 09:23:00,48.4,42.7,29.79,North,0,2.0,3.4,81,0.00,,,0.00,LWC V1.12 B30,2013-09-25 16:23:00,
2013-09-25 09:28:00,48.2,42.7,29.79,North,0,1.1,1.8,81,0.00,,,0.00,LWC V1.12 B30,2013-09-25 16:28:00,
2013-09-25 09:33:00,48.4,42.7,29.79,West,270,0.0,0.0,81,0.00,,,0.00,LWC V1.12 B30,2013-09-25 16:33:00,
2013-09-25 09:38:00,48.6,42.9,29.79,West,270,0.0,0.0,81,0.00,,,0.00,LWC V1.12 B30,2013-09-25 16:38:00,
2013-09-25 09:43:00,48.9,43.3,29.79,WNW,292,0.0,0.9,81,0.00,,,0.00,LWC V1.12 B30,2013-09-25 16:43:00,
2013-09-25 09:48:00,49.3,43.3,29.79,WNW,292,0.0,2.7,80,0.00,,,0.00,LWC V1.12 B30,2013-09-25 16:48:00,
2013-09-25 09:53:00,49.6,43.7,29.79,North,0,0.0,0.0,80,0.00,,,0.00,LWC V1.12 B30,2013-09-25 16:53:00,
2013-09-25 09:58:00,49.8,43.2,29.78,North,0,0.0,2.9,78,0.00,,,0.00,LWC V1.12 B30,2013-09-25 16:58:00,
2013-09-25 10:03:00,49.8,43.2,29.78,West,270,0.0,1.3,78,0.00,,,0.00,LWC V1.12 B30,2013-09-25 17:03:00,
2013-09-25 10:08:00,50.2,43.6,29.79,West,270,0.0,0.0,78,0.00,,,0.00,LWC V1.12 B30,2013-09-25 17:08:00,
2013-09-25 10:13:00,50.5,43.9,29.78,NNW,337,0.0,2.5,78,0.00,,,0.00,LWC V1.12 B30,2013-09-25 17:13:00,
2013-09-25 10:18:00,50.9,43.9,29.78,NW,315,2.7,3.8,77,0.00,,,0.00,LWC V1.12 B30,2013-09-25 17:18:00,
2013-09-25 10:23:00,51.4,44.1,29.78,NNW,337,6.3,6.3,76,0.00,,,0.00,LWC V1.12 B30,2013-09-25 17:23:00,
2013-09-25 10:28:00,51.6,44.3,29.78,West,270,1.3,2.0,76,0.00,,,0.00,LWC V1.12 B30,2013-09-25 17:28:00,
2013-09-25 10:33:00,52.3,44.3,29.78,North,0,0.9,4.0,74,0.00,,,0.00,LWC V1.12 B30,2013-09-25 17:33:00,
2013-09-25 10:38:00,52.5,44.1,29.78,NNE,22,0.0,1.3,73,0.00,,,0.00,LWC V1.12 B30,2013-09-25 17:38:00,
2013-09-25 10:43:00,52.7,44.3,29.78,NNE,22,0.0,0.0,73,0.00,,,0.00,LWC V1.12 B30,2013-09-25 17:43:00,
2013-09-25 10:49:00,53.1,44.1,29.78,North,0,1.6,1.6,72,0.00,,,0.00,LWC V1.12 B30,2013-09-25 17:49:00,
2013-09-25 10:54:00,53.2,44.4,29.78,North,0,2.5,2.5,72,0.00,,,0.00,LWC V1.12 B30,2013-09-25 17:54:00,
2013-09-25 10:59:00,53.2,44.1,29.78,NW,315,0.0,2.0,71,0.00,,,0.00,LWC V1.12 B30,2013-09-25 17:59:00,
2013-09-25 11:04:00,53.2,44.1,29.78,NNW,337,1.1,1.1,71,0.00,,,0.00,LWC V1.12 B30,2013-09-25 18:04:00,
2013-09-25 11:09:00,53.2,44.1,29.77,NNW,337,0.0,0.0,71,0.00,,,0.00,LWC V1.12 B30,2013-09-25 18:09:00,
2013-09-25 11:14:00,53.2,44.1,29.77,West,270,1.6,2.9,71,0.00,,,0.00,LWC V1.12 B30,2013-09-25 18:14:00,
2013-09-25 11:19:00,53.2,44.1,29.77,North,0,0.0,0.0,71,0.00,,,0.00,LWC V1.12 B30,2013-09-25 18:19:00,
2013-09-25 11:24:00,53.2,44.1,29.77,North,0,2.2,3.1,71,0.00,,,0.00,LWC V1.12 B30,2013-09-25 18:24:00,
2013-09-25 11:29:00,53.4,43.9,29.77,NNW,337,1.6,1.6,70,0.00,,,0.00,LWC V1.12 B30,2013-09-25 18:29:00,
2013-09-25 11:34:00,53.8,44.2,29.77,East,90,0.0,0.0,70,0.00,,,0.00,LWC V1.12 B30,2013-09-25 18:34:00,
2013-09-25 11:39:00,54.0,44.0,29.77,NNE,22,4.2,5.6,69,0.00,,,0.00,LWC V1.12 B30,2013-09-25 18:39:00,
2013-09-25 11:44:00,54.0,44.0,29.77,SE,135,0.0,0.0,69,0.00,,,0.00,LWC V1.12 B30,2013-09-25 18:44:00,
2013-09-25 11:49:00,54.5,45.0,29.77,East,90,0.0,0.0,70,0.00,,,0.00,LWC V1.12 B30,2013-09-25 18:49:00,
2013-09-25 11:54:00,55.2,45.3,29.77,WNW,292,0.0,2.0,69,0.00,,,0.00,LWC V1.12 B30,2013-09-25 18:54:00,
2013-09-25 11:59:00,55.8,44.5,29.77,NNW,337,1.3,3.1,66,0.00,,,0.00,LWC V1.12 B30,2013-09-25 18:59:00,
2013-09-25 12:04:00,55.6,44.4,29.76,WSW,247,2.0,2.0,66,0.00,,,0.00,LWC V1.12 B30,2013-09-25 19:04:00,
2013-09-25 12:09:00,55.8,44.5,29.76,NW,315,0.0,2.2,66,0.00,,,0.00,LWC V1.12 B30,2013-09-25 19:09:00,
2013-09-25 12:14:00,55.9,44.7,29.77,West,270,0.0,1.3,66,0.00,,,0.00,LWC V1.12 B30,2013-09-25 19:14:00,
2013-09-25 12:19:00,55.9,44.7,29.77,West,270,0.0,2.9,66,0.00,,,0.00,LWC V1.12 B30,2013-09-25 19:19:00,
2013-09-25 12:24:00,55.8,43.7,29.77,NE,45,2.7,3.8,64,0.00,,,0.00,LWC V1.12 B30,2013-09-25 19:24:00,
2013-09-25 12:29:00,55.2,43.6,29.76,NNW,337,2.0,2.9,65,0.00,,,0.00,LWC V1.12 B30,2013-09-25 19:29:00,
2013-09-25 12:34:00,54.5,42.9,29.77,NNW,337,0.0,1.8,65,0.00,,,0.00,LWC V1.12 B30,2013-09-25 19:34:00,
2013-09-25 12:39:00,54.0,42.8,29.77,WNW,292,1.3,1.8,66,0.00,,,0.00,LWC V1.12 B30,2013-09-25 19:39:00,
2013-09-25 12:44:00,53.4,42.7,29.77,NW,315,1.6,1.8,67,0.00,,,0.00,LWC V1.12 B30,2013-09-25 19:44:00,
2013-09-25 12:49:00,53.2,42.9,29.77,NW,315,0.0,0.0,68,0.00,,,0.00,LWC V1.12 B30,2013-09-25 19:49:00,
2013-09-25 12:54:00,53.2,43.7,29.77,North,0,1.1,4.0,70,0.00,,,0.00,LWC V1.12 B30,2013-09-25 19:54:00,
2013-09-25 12:59:00,52.9,43.8,29.77,WNW,292,0.0,1.8,71,0.00,,,0.00,LWC V1.12 B30,2013-09-25 19:59:00,
2013-09-25 13:05:00,52.5,43.4,29.77,NNW,337,0.0,2.0,71,0.00,,,0.00,LWC V1.12 B30,2013-09-25 20:05:00,
2013-09-25 13:10:00,52.3,43.3,29.77,NNW,337,0.7,3.6,71,0.00,,,0.00,LWC V1.12 B30,2013-09-25 20:10:00,
2013-09-25 13:15:00,52.2,43.4,29.78,North,0,3.1,3.1,72,0.00,,,0.00,LWC V1.12 B30,2013-09-25 20:15:00,
2013-09-25 13:20:00,51.8,43.1,29.78,NNW,337,0.9,3.8,73,0.00,,,0.00,LWC V1.12 B30,2013-09-25 20:20:00,
2013-09-25 13:25:00,51.8,43.8,29.78,NNW,337,2.0,2.7,74,0.00,,,0.00,LWC V1.12 B30,2013-09-25 20:25:00,
2013-09-25 13:30:00,51.6,44.0,29.78,NNW,337,0.0,2.9,75,0.00,,,0.00,LWC V1.12 B30,2013-09-25 20:30:00,
2013-09-25 13:35:00,51.6,44.0,29.78,North,0,0.9,1.6,75,0.00,,,0.00,LWC V1.12 B30,2013-09-25 20:35:00,
2013-09-25 13:40:00,51.4,44.1,29.78,North,0,0.0,0.0,76,0.02,,,0.00,LWC V1.12 B30,2013-09-25 20:40:00,
2013-09-25 13:45:00,51.6,44.3,29.78,North,0,0.0,0.0,76,0.02,,,0.00,LWC V1.12 B30,2013-09-25 20:45:00,
2013-09-25 13:50:00,51.6,44.3,29.78,North,0,0.0,0.0,76,0.02,,,0.02,LWC V1.12 B30,2013-09-25 20:50:00,
2013-09-25 13:55:00,52.0,44.7,29.78,North,0,0.0,0.0,76,0.02,,,0.02,LWC V1.12 B30,2013-09-25 20:55:00,
2013-09-25 14:00:00,52.5,45.2,29.78,SE,135,0.0,0.0,76,0.02,,,0.02,LWC V1.12 B30,2013-09-25 21:00:00,
2013-09-25 14:05:00,52.9,45.9,29.78,SE,135,0.0,0.0,77,0.02,,,0.02,LWC V1.12 B30,2013-09-25 21:05:00,
2013-09-25 14:10:00,53.4,46.4,29.78,SE,135,0.0,1.3,77,0.02,,,0.02,LWC V1.12 B30,2013-09-25 21:10:00,
2013-09-25 14:16:00,54.3,46.9,29.78,East,90,0.0,0.0,77,0.02,,,0.02,LWC V1.12 B30,2013-09-25 21:16:00,
2013-09-25 14:21:00,54.9,46.7,29.78,North,0,1.6,1.6,74,0.02,,,0.02,LWC V1.12 B30,2013-09-25 21:21:00,
2013-09-25 14:26:00,55.0,46.2,29.78,North,0,0.0,0.0,72,0.02,,,0.02,LWC V1.12 B30,2013-09-25 21:26:00,
2013-09-25 14:31:00,55.4,46.5,29.78,North,0,0.0,2.0,72,0.02,,,0.02,LWC V1.12 B30,2013-09-25 21:31:00,
2013-09-25 14:36:00,55.6,46.0,29.78,NW,315,1.1,1.3,70,0.00,,,0.02,LWC V1.12 B30,2013-09-25 21:36:00,
2013-09-25 14:41:00,55.6,46.4,29.78,WSW,247,0.0,1.6,71,0.00,,,0.02,LWC V1.12 B30,2013-09-25 21:41:00,
2013-09-25 14:46:00,55.2,46.4,29.79,NW,315,3.6,3.8,72,0.00,,,0.02,LWC V1.12 B30,2013-09-25 21:46:00,
2013-09-25 14:51:00,54.9,46.0,29.79,NE,45,0.0,2.2,72,0.00,,,0.02,LWC V1.12 B30,2013-09-25 21:51:00,
2013-09-25 14:56:00,54.1,45.7,29.79,ENE,67,0.0,0.0,73,0.02,,,0.02,LWC V1.12 B30,2013-09-25 21:56:00,
2013-09-25 15:01:00,53.8,45.7,29.79,ENE,67,0.0,0.0,74,0.02,,,0.04,LWC V1.12 B30,2013-09-25 22:01:00,
2013-09-25 15:06:00,53.4,45.7,29.79,ESE,112,0.0,2.0,75,0.02,,,0.04,LWC V1.12 B30,2013-09-25 22:06:00,
2013-09-25 15:11:00,53.2,45.5,29.78,ESE,112,2.5,2.5,76,0.02,,,0.04,LWC V1.12 B30,2013-09-25 22:11:00,
2013-09-25 15:16:00,53.4,46.0,29.78,ESE,112,0.0,0.0,76,0.02,,,0.04,LWC V1.12 B30,2013-09-25 22:16:00,
2013-09-25 15:21:00,53.4,46.0,29.78,ESE,112,0.0,0.0,76,0.02,,,0.04,LWC V1.12 B30,2013-09-25 22:21:00,
2013-09-25 15:26:00,53.4,46.4,29.78,ESE,112,0.0,0.0,77,0.02,,,0.04,LWC V1.12 B30,2013-09-25 22:26:00,
2013-09-25 15:31:00,53.8,46.7,29.79,East,90,0.0,0.0,77,0.02,,,0.04,LWC V1.12 B30,2013-09-25 22:31:00,
2013-09-25 15:36:00,54.0,46.5,29.79,East,90,0.0,0.0,76,0.02,,,0.04,LWC V1.12 B30,2013-09-25 22:36:00,
2013-09-25 15:41:00,54.0,46.5,29.79,East,90,0.0,0.0,76,0.02,,,0.04,LWC V1.12 B30,2013-09-25 22:41:00,
2013-09-25 15:47:00,54.0,46.5,29.80,East,90,0.0,0.0,76,0.02,,,0.04,LWC V1.12 B30,2013-09-25 22:47:00,
2013-09-25 15:52:00,53.8,46.4,29.80,NE,45,0.0,0.0,76,0.00,,,0.04,LWC V1.12 B30,2013-09-25 22:52:00,
2013-09-25 15:57:00,53.8,46.4,29.81,NNE,22,0.0,0.0,76,0.00,,,0.04,LWC V1.12 B30,2013-09-25 22:57:00,
2013-09-25 16:03:00,53.4,46.0,29.81,North,0,1.8,2.2,76,0.00,,,0.04,LWC V1.12 B30,2013-09-25 23:03:00,
2013-09-25 16:08:00,53.2,46.2,29.81,NNW,337,1.8,3.1,77,0.00,,,0.04,LWC V1.12 B30,2013-09-25 23:08:00,
2013-09-25 16:13:00,52.5,45.9,29.81,NW,315,1.6,1.8,78,0.00,,,0.04,LWC V1.12 B30,2013-09-25 23:13:00,
2013-09-25 16:18:00,52.2,45.5,29.81,West,270,0.0,1.3,78,0.00,,,0.04,LWC V1.12 B30,2013-09-25 23:18:00,
2013-09-25 16:23:00,52.0,45.3,29.82,West,270,0.0,0.0,78,0.00,,,0.04,LWC V1.12 B30,2013-09-25 23:23:00,
2013-09-25 16:28:00,51.6,45.0,29.81,WSW,247,0.0,1.6,78,0.00,,,0.04,LWC V1.12 B30,2013-09-25 23:28:00,
2013-09-25 16:34:00,51.6,45.0,29.82,WSW,247,0.0,0.0,78,0.00,,,0.04,LWC V1.12 B30,2013-09-25 23:34:00,
2013-09-25 16:39:00,51.6,45.3,29.82,West,270,0.0,0.0,79,0.00,,,0.04,LWC V1.12 B30,2013-09-25 23:39:00,
2013-09-25 16:44:00,51.4,45.2,29.82,West,270,0.0,0.0,79,0.00,,,0.04,LWC V1.12 B30,2013-09-25 23:44:00,
2013-09-25 16:49:00,51.6,45.3,29.82,WNW,292,0.0,0.0,79,0.00,,,0.04,LWC V1.12 B30,2013-09-25 23:49:00,
2013-09-25 16:54:00,51.6,45.3,29.81,WNW,292,0.0,0.0,79,0.00,,,0.04,LWC V1.12 B30,2013-09-25 23:54:00,
2013-09-25 16:59:00,51.8,45.5,29.82,WNW,292,0.0,0.0,79,0.00,,,0.04,LWC V1.12 B30,2013-09-25 23:59:00,
2013-09-25 17:04:00,51.8,45.5,29.82,NW,315,0.0,1.8,79,0.00,,,0.04,LWC V1.12 B30,2013-09-26 00:04:00,
2013-09-25 17:09:00,52.0,46.0,29.82,NW,315,0.0,0.0,80,0.00,,,0.04,LWC V1.12 B30,2013-09-26 00:09:00,
2013-09-25 17:14:00,52.0,46.0,29.82,WNW,292,0.0,0.0,80,0.00,,,0.04,LWC V1.12 B30,2013-09-26 00:14:00,
2013-09-25 17:19:00,52.2,46.2,29.82,WNW,292,0.0,0.0,80,0.00,,,0.04,LWC V1.12 B30,2013-09-26 00:19:00,
2013-09-25 17:24:00,52.2,46.2,29.82,NW,315,0.0,0.0,80,0.00,,,0.04,LWC V1.12 B30,2013-09-26 00:24:00,
2013-09-25 17:29:00,52.2,46.2,29.82,NW,315,0.0,0.0,80,0.00,,,0.04,LWC V1.12 B30,2013-09-26 00:29:00,
2013-09-25 17:34:00,52.3,46.7,29.82,NNW,337,0.0,2.0,81,0.00,,,0.04,LWC V1.12 B30,2013-09-26 00:34:00,
2013-09-25 17:39:00,52.2,46.2,29.82,NNW,337,0.0,1.6,80,0.00,,,0.04,LWC V1.12 B30,2013-09-26 00:39:00,
2013-09-25 17:44:00,52.0,46.0,29.82,NW,315,1.6,1.6,80,0.00,,,0.04,LWC V1.12 B30,2013-09-26 00:44:00,
2013-09-25 17:49:00,52.0,46.2,29.83,North,0,0.0,5.1,81,0.00,,,0.04,LWC V1.12 B30,2013-09-26 00:49:00,
2013-09-25 17:54:00,51.6,46.0,29.83,NW,315,3.6,4.9,81,0.00,,,0.04,LWC V1.12 B30,2013-09-26 00:54:00,
2013-09-25 17:59:00,51.6,45.7,29.83,North,0,7.2,7.2,80,0.00,,,0.04,LWC V1.12 B30,2013-09-26 00:59:00,
2013-09-25 18:04:00,51.3,45.0,29.83,South,180,28.4,28.4,79,0.00,,,0.04,LWC V1.12 B30,2013-09-26 01:04:00,
2013-09-25 18:09:00,50.9,44.6,29.83,North,0,1.3,2.7,79,0.00,,,0.04,LWC V1.12 B30,2013-09-26 01:09:00,
2013-09-25 18:14:00,50.9,45.0,29.83,North,0,0.0,3.4,80,0.00,,,0.04,LWC V1.12 B30,2013-09-26 01:14:00,
2013-09-25 18:19:00,50.7,44.8,29.83,North,0,0.0,3.1,80,0.00,,,0.04,LWC V1.12 B30,2013-09-26 01:19:00,
2013-09-25 18:24:00,50.7,44.8,29.83,North,0,1.3,2.7,80,0.00,,,0.04,LWC V1.12 B30,2013-09-26 01:24:00,
2013-09-25 18:29:00,50.7,44.8,29.83,North,0,3.1,3.6,80,0.00,,,0.04,LWC V1.12 B30,2013-09-26 01:29:00,
2013-09-25 18:35:00,50.5,44.9,29.83,NNW,337,2.5,4.5,81,0.00,,,0.04,LWC V1.12 B30,2013-09-26 01:35:00,
2013-09-25 18:40:00,50.5,44.9,29.83,North,0,0.9,2.0,81,0.00,,,0.04,LWC V1.12 B30,2013-09-26 01:40:00,
2013-09-25 18:45:00,50.5,44.9,29.83,North,0,0.0,0.0,81,0.00,,,0.04,LWC V1.12 B30,2013-09-26 01:45:00,
2013-09-25 18:50:00,50.5,45.2,29.83,NNW,337,0.0,1.6,82,0.00,,,0.04,LWC V1.12 B30,2013-09-26 01:50:00,
2013-09-25 18:55:00,50.5,45.2,29.83,NNW,337,1.3,4.7,82,0.00,,,0.04,LWC V1.12 B30,2013-09-26 01:55:00,
2013-09-25 19:00:00,50.4,44.7,29.84,NNW,337,2.2,3.1,81,0.00,,,0.04,LWC V1.12 B30,2013-09-26 02:00:00,
2013-09-25 19:05:00,50.4,44.7,29.84,NNW,337,3.6,6.0,81,0.00,,,0.04,LWC V1.12 B30,2013-09-26 02:05:00,
2013-09-25 19:10:00,50.2,44.5,29.84,North,0,4.2,6.9,81,0.00,,,0.04,LWC V1.12 B30,2013-09-26 02:10:00,
2013-09-25 19:15:00,50.2,44.2,29.84,NNW,337,3.6,5.4,80,0.00,,,0.04,LWC V1.12 B30,2013-09-26 02:15:00,
2013-09-25 19:20:00,50.2,44.2,29.84,North,0,0.0,0.0,80,0.00,,,0.04,LWC V1.12 B30,2013-09-26 02:20:00,
2013-09-25 19:25:00,50.2,44.2,29.85,West,270,0.0,0.0,80,0.00,,,0.04,LWC V1.12 B30,2013-09-26 02:25:00,
2013-09-25 19:30:00,50.2,44.2,29.85,NW,315,0.0,0.0,80,0.00,,,0.04,LWC V1.12 B30,2013-09-26 02:30:00,
2013-09-25 19:35:00,50.2,43.6,29.85,NNW,337,0.0,2.2,78,0.00,,,0.04,LWC V1.12 B30,2013-09-26 02:35:00,
2013-09-25 19:40:00,50.0,43.4,29.85,NNW,337,0.0,0.0,78,0.00,,,0.04,LWC V1.12 B30,2013-09-26 02:40:00,
2013-09-25 19:45:00,49.8,43.2,29.85,NNW,337,0.0,0.0,78,0.00,,,0.04,LWC V1.12 B30,2013-09-26 02:45:00,
2013-09-25 19:50:00,49.8,43.2,29.85,NNW,337,0.0,0.0,78,0.00,,,0.04,LWC V1.12 B30,2013-09-26 02:50:00,
2013-09-25 19:55:00,49.8,43.2,29.85,NNW,337,0.0,0.0,78,0.00,,,0.04,LWC V1.12 B30,2013-09-26 02:55:00,
2013-09-25 20:00:00,49.6,43.0,29.86,NNW,337,0.0,0.0,78,0.00,,,0.04,LWC V1.12 B30,2013-09-26 03:00:00,
2013-09-25 20:05:00,49.6,43.0,29.86,NNW,337,0.0,3.1,78,0.00,,,0.04,LWC V1.12 B30,2013-09-26 03:05:00,
2013-09-25 20:10:00,49.3,42.7,29.85,NNW,337,0.0,0.0,78,0.00,,,0.04,LWC V1.12 B30,2013-09-26 03:10:00,
2013-09-25 20:15:00,49.3,43.0,29.86,NNW,337,0.0,0.0,79,0.00,,,0.04,LWC V1.12 B30,2013-09-26 03:15:00,
2013-09-25 20:20:00,49.3,43.0,29.86,North,0,2.2,3.6,79,0.00,,,0.04,LWC V1.12 B30,2013-09-26 03:20:00,
2013-09-25 20:25:00,48.9,43.0,29.86,NNW,337,1.8,2.7,80,0.00,,,0.04,LWC V1.12 B30,2013-09-26 03:25:00,
2013-09-25 20:30:00,48.7,42.8,29.86,NNW,337,2.7,2.7,80,0.00,,,0.04,LWC V1.12 B30,2013-09-26 03:30:00,
2013-09-25 20:35:00,48.6,42.9,29.86,NNW,337,1.3,1.3,81,0.02,,,0.04,LWC V1.12 B30,2013-09-26 03:35:00,
2013-09-25 20:40:00,48.4,42.7,29.86,North,0,0.0,0.0,81,0.02,,,0.04,LWC V1.12 B30,2013-09-26 03:40:00,
2013-09-25 20:45:00,48.2,42.9,29.86,North,0,0.0,0.0,82,0.02,,,0.04,LWC V1.12 B30,2013-09-26 03:45:00,
2013-09-25 20:50:00,48.0,42.7,29.86,North,0,0.0,0.0,82,0.02,,,0.06,LWC V1.12 B30,2013-09-26 03:50:00,
2013-09-25 20:55:00,48.0,43.1,29.86,NNW,337,0.0,1.6,83,0.02,,,0.06,LWC V1.12 B30,2013-09-26 03:55:00,
2013-09-25 21:00:00,47.8,43.2,29.86,North,0,0.0,1.8,84,0.02,,,0.06,LWC V1.12 B30,2013-09-26 04:00:00,
2013-09-25 21:01:00,47.8,43.2,29.86,NNW,337,2.7,2.7,84,0.02,,,0.06,LWC V1.12 B30,2013-09-26 04:01:00,
2013-09-25 21:02:00,47.8,43.2,29.86,North,0,3.8,3.8,84,0.02,,,0.06,LWC V1.12 B30,2013-09-26 04:02:00,
2013-09-25 21:03:00,47.8,43.2,29.86,NNW,337,0.0,3.8,84,0.02,,,0.06,LWC V1.12 B30,2013-09-26 04:03:00,
2013-09-25 21:05:00,47.8,43.2,29.86,NNW,337,1.6,2.0,84,0.02,,,0.06,LWC V1.12 B30,2013-09-26 04:05:00,
2013-09-25 21:10:00,47.5,42.9,29.86,NNW,337,0.0,0.0,84,0.02,,,0.06,LWC V1.12 B30,2013-09-26 04:10:00,
2013-09-25 21:12:00,47.5,42.9,29.86,North,0,0.0,0.0,84,0.02,,,0.06,LWC V1.12 B30,2013-09-26 04:12:00,
2013-09-25 21:17:00,47.5,42.9,29.87,North,0,0.0,0.0,84,0.02,,,0.06,LWC V1.12 B30,2013-09-26 04:17:00,
2013-09-25 21:22:00,47.5,42.9,29.86,North,0,0.0,0.0,84,0.02,,,0.06,LWC V1.12 B30,2013-09-26 04:22:00,
2013-09-25 21:27:00,47.5,43.2,29.87,NNW,337,0.0,0.0,85,0.02,,,0.06,LWC V1.12 B30,2013-09-26 04:27:00,
2013-09-25 21:32:00,47.5,43.2,29.86,NW,315,0.0,0.0,85,0.02,,,0.06,LWC V1.12 B30,2013-09-26 04:32:00,
2013-09-25 21:37:00,47.5,43.2,29.86,NW,315,0.0,0.0,85,0.00,,,0.06,LWC V1.12 B30,2013-09-26 04:37:00,
2013-09-25 21:42:00,47.5,43.2,29.86,NW,315,0.0,0.0,85,0.00,,,0.06,LWC V1.12 B30,2013-09-26 04:42:00,
2013-09-25 21:47:00,47.5,43.2,29.87,NW,315,0.0,0.0,85,0.00,,,0.06,LWC V1.12 B30,2013-09-26 04:47:00,
2013-09-25 21:52:00,47.5,43.2,29.87,NW,315,0.0,0.0,85,0.00,,,0.06,LWC V1.12 B30,2013-09-26 04:52:00,
2013-09-25 21:57:00,47.5,43.5,29.86,NW,315,0.0,0.0,86,0.00,,,0.06,LWC V1.12 B30,2013-09-26 04:57:00,
2013-09-25 22:02:00,47.3,43.5,29.87,NW,315,0.0,0.0,86,0.00,,,0.06,LWC V1.12 B30,2013-09-26 05:02:00,
2013-09-25 22:07:00,47.3,43.3,29.86,NNW,337,0.0,0.0,86,0.00,,,0.06,LWC V1.12 B30,2013-09-26 05:07:00,
2013-09-25 22:12:00,47.3,43.3,29.86,NNW,337,0.0,0.0,86,0.00,,,0.06,LWC V1.12 B30,2013-09-26 05:12:00,
2013-09-25 22:18:00,47.3,43.2,29.87,NNW,337,0.0,0.0,86,0.00,,,0.06,LWC V1.12 B30,2013-09-26 05:18:00,
2013-09-25 22:23:00,47.1,43.2,29.87,NNW,337,0.0,0.0,86,0.00,,,0.06,LWC V1.12 B30,2013-09-26 05:23:00,
2013-09-25 22:28:00,47.1,43.2,29.87,North,0,0.0,0.0,86,0.00,,,0.06,LWC V1.12 B30,2013-09-26 05:28:00,
2013-09-25 22:33:00,47.1,43.2,29.87,NNW,337,0.0,1.6,86,0.00,,,0.06,LWC V1.12 B30,2013-09-26 05:33:00,
2013-09-25 22:38:00,46.9,43.0,29.87,NNW,337,0.0,1.3,86,0.00,,,0.06,LWC V1.12 B30,2013-09-26 05:38:00,
2013-09-25 22:43:00,46.9,43.0,29.87,NNW,337,2.9,5.6,86,0.00,,,0.06,LWC V1.12 B30,2013-09-26 05:43:00,
2013-09-25 22:48:00,46.8,42.8,29.87,North,0,2.2,2.2,86,0.00,,,0.06,LWC V1.12 B30,2013-09-26 05:48:00,
2013-09-25 22:53:00,46.8,42.8,29.87,NNW,337,0.0,1.6,86,0.00,,,0.06,LWC V1.12 B30,2013-09-26 05:53:00,
2013-09-25 22:58:00,46.8,42.8,29.87,NNW,337,0.0,3.6,86,0.00,,,0.06,LWC V1.12 B30,2013-09-26 05:58:00,
2013-09-25 23:03:00,46.6,42.6,29.87,NNW,337,0.0,0.0,86,0.00,,,0.06,LWC V1.12 B30,2013-09-26 06:03:00,
2013-09-25 23:08:00,46.6,42.6,29.87,WNW,292,0.0,0.0,86,0.00,,,0.06,LWC V1.12 B30,2013-09-26 06:08:00,
2013-09-25 23:13:00,46.6,42.9,29.87,NNW,337,0.0,3.4,87,0.00,,,0.06,LWC V1.12 B30,2013-09-26 06:13:00,
2013-09-25 23:18:00,46.6,42.9,29.87,NNW,337,1.6,3.8,87,0.00,,,0.06,LWC V1.12 B30,2013-09-26 06:18:00,
2013-09-25 23:24:00,46.2,42.6,29.87,North,0,0.0,0.0,87,0.00,,,0.06,LWC V1.12 B30,2013-09-26 06:24:00,
2013-09-25 23:29:00,46.2,42.6,29.87,NNW,337,2.0,2.5,87,0.00,,,0.06,LWC V1.12 B30,2013-09-26 06:29:00,
2013-09-25 23:34:00,46.0,42.4,29.87,North,0,1.6,2.2,87,0.00,,,0.06,LWC V1.12 B30,2013-09-26 06:34:00,
2013-09-25 23:39:00,46.0,42.4,29.87,North,0,1.8,2.9,87,0.00,,,0.06,LWC V1.12 B30,2013-09-26 06:39:00,
2013-09-25 23:44:00,46.0,42.4,29.87,North,0,0.0,0.0,87,0.00,,,0.06,LWC V1.12 B30,2013-09-26 06:44:00,
2013-09-25 23:49:00,45.7,42.1,29.87,North,0,0.0,0.0,87,0.00,,,0.06,LWC V1.12 B30,2013-09-26 06:49:00,
2013-09-25 23:54:00,45.7,42.4,29.87,NNW,337,0.0,0.0,88,0.00,,,0.06,LWC V1.12 B30,2013-09-26 06:54:00,
2013-09-25 23:59:00,45.7,42.4,29.87,North,0,0.0,0.0,88,0.00,,,0.06,LWC V1.12 B30,2013-09-26 06:59:00,